Time;durP1;ratioP1;P1;durP2;ratioP2;P2;SDS_P1;SDS_P2;PMS_P1;PMS_P2;Temp;Humidity;BMP_temperature;BMP_pressure;BME280_temperature;BME280_humidity;BME280_pressure;Samples;Min_cycle;Max_cycle;Signal;HPM_P1;HPM_P2
2022/07/12 00:02:02;;;;;;;3.37;1.50;;;18.60;38.10;;;;;;5096317;28;20532;-43
2022/07/12 00:04:28;;;;;;;3.80;2.58;;;18.60;38.10;;;;;;5095683;28;20168;-43
2022/07/12 00:06:54;;;;;;;3.00;1.83;;;18.60;38.20;;;;;;5095830;28;20180;-43
2022/07/12 00:09:20;;;;;;;3.77;2.77;;;18.50;38.30;;;;;;5095524;28;20701;-45
2022/07/12 00:11:46;;;;;;;2.80;2.03;;;18.50;38.30;;;;;;5095638;28;20172;-43
2022/07/12 00:14:11;;;;;;;3.90;2.23;;;18.50;38.30;;;;;;5095607;28;20168;-46
2022/07/12 00:16:37;;;;;;;3.27;1.67;;;18.40;38.20;;;;;;5095204;28;20191;-45
2022/07/12 00:19:03;;;;;;;3.83;1.50;;;18.40;38.50;;;;;;5095406;28;20184;-45
2022/07/12 00:21:29;;;;;;;4.35;2.90;;;18.40;38.60;;;;;;5095466;28;20164;-46
2022/07/12 00:23:55;;;;;;;2.57;2.17;;;18.30;38.60;;;;;;5095447;28;20228;-45
2022/07/12 00:26:21;;;;;;;4.77;2.07;;;18.30;38.60;;;;;;5095155;28;20394;-45
2022/07/12 00:28:47;;;;;;;4.00;2.60;;;18.30;38.60;;;;;;5095320;28;20198;-46
2022/07/12 00:31:13;;;;;;;2.95;1.95;;;18.30;38.70;;;;;;5095311;28;20163;-45
2022/07/12 00:33:39;;;;;;;4.40;3.30;;;18.30;38.60;;;;;;5095265;28;20277;-45
2022/07/12 00:36:05;;;;;;;3.27;1.90;;;18.30;38.60;;;;;;5094942;28;20175;-44
2022/07/12 00:38:31;;;;;;;2.95;2.22;;;18.20;38.60;;;;;;5095302;28;20188;-45
2022/07/12 00:40:56;;;;;;;2.33;1.63;;;18.20;38.80;;;;;;5095107;28;20705;-44
2022/07/12 00:43:22;;;;;;;4.33;2.63;;;18.20;38.90;;;;;;5095099;28;20757;-45
2022/07/12 00:45:48;;;;;;;3.63;2.27;;;18.10;38.70;;;;;;5094828;28;20164;-45
2022/07/12 00:48:17;;;;;;;2.90;1.93;;;18.10;39.00;;;;;;5094803;28;20188;-45
2022/07/12 00:50:48;;;;;;;2.25;1.55;;;18.10;39.10;;;;;;5094329;28;20414;-45
2022/07/12 00:53:16;;;;;;;3.92;2.58;;;18.10;39.10;;;;;;5094951;28;20523;-46
2022/07/12 00:55:42;;;;;;;2.88;1.92;;;18.10;39.10;;;;;;5094738;28;20670;-46
2022/07/12 00:58:08;;;;;;;2.60;1.90;;;18.00;39.10;;;;;;5094674;28;20234;-45
2022/07/12 01:00:34;;;;;;;3.50;1.97;;;18.00;39.30;;;;;;5094719;28;20635;-45
2022/07/12 01:03:01;;;;;;;2.20;1.27;;;18.00;39.90;;;;;;5094583;28;20417;-45
2022/07/12 01:05:28;;;;;;;2.40;1.60;;;18.00;39.30;;;;;;5094824;28;20164;-45
2022/07/12 01:07:55;;;;;;;2.97;2.22;;;18.00;39.50;;;;;;5094231;28;20223;-45
2022/07/12 01:10:22;;;;;;;2.80;2.10;;;18.00;39.40;;;;;;5094516;28;20619;-45
2022/07/12 01:12:48;;;;;;;3.75;2.95;;;18.00;39.30;;;;;;5094599;28;20194;-45
2022/07/12 01:15:14;;;;;;;4.35;2.63;;;18.00;39.30;;;;;;5094451;28;20194;-45
2022/07/12 01:17:40;;;;;;;2.77;1.50;;;17.90;39.50;;;;;;5094151;28;20543;-45
2022/07/12 01:20:07;;;;;;;3.10;1.93;;;17.90;39.50;;;;;;5094180;28;20789;-45
2022/07/12 01:22:40;;;;;;;2.65;1.90;;;17.90;39.50;;;;;;5094346;28;20413;-45
2022/07/12 01:25:06;;;;;;;3.45;2.38;;;17.90;39.60;;;;;;5094391;28;20152;-46
2022/07/12 01:27:33;;;;;;;2.63;2.13;;;17.90;40.60;;;;;;5093885;28;20593;-45
2022/07/12 01:30:02;;;;;;;6.00;2.00;;;17.90;40.00;;;;;;5094095;28;20194;-45
2022/07/12 01:32:29;;;;;;;3.95;1.92;;;17.90;39.80;;;;;;5094161;28;20546;-45
2022/07/12 01:35:02;;;;;;;3.90;1.70;;;17.90;39.90;;;;;;5076097;28;20176;-46
2022/07/12 01:37:34;;;;;;;5.07;2.13;;;17.90;40.10;;;;;;5093763;28;20203;-45
2022/07/12 01:40:01;;;;;;;2.20;1.65;;;18.00;40.10;;;;;;5094065;28;20164;-46
2022/07/12 01:42:29;;;;;;;2.55;1.77;;;18.00;40.00;;;;;;5093914;28;20163;-45
2022/07/12 01:44:56;;;;;;;3.03;2.22;;;18.00;40.10;;;;;;5093857;28;20550;-45
2022/07/12 01:47:23;;;;;;;2.53;2.10;;;18.10;40.10;;;;;;5093595;28;20670;-46
2022/07/12 01:49:49;;;;;;;2.50;1.85;;;18.10;40.40;;;;;;5094039;28;20625;-45
2022/07/12 01:52:16;;;;;;;2.83;2.00;;;18.10;40.40;;;;;;5093725;28;20505;-45
2022/07/12 01:54:42;;;;;;;2.67;1.52;;;18.10;40.30;;;;;;5093674;28;20167;-45
2022/07/12 01:57:09;;;;;;;2.35;1.75;;;18.10;40.30;;;;;;5093299;28;20202;-44
2022/07/12 01:59:35;;;;;;;2.72;1.45;;;18.00;40.20;;;;;;5093493;28;20203;-46
2022/07/12 02:02:02;;;;;;;2.40;1.77;;;18.10;40.40;;;;;;5093609;28;20654;-45
2022/07/12 02:04:28;;;;;;;4.15;2.28;;;18.10;40.40;;;;;;5093484;28;20179;-44
2022/07/12 02:06:55;;;;;;;4.57;1.80;;;18.10;40.50;;;;;;5093259;28;20164;-45
2022/07/12 02:09:21;;;;;;;1.80;1.25;;;18.10;40.30;;;;;;5093211;28;20203;-45
2022/07/12 02:11:47;;;;;;;2.40;1.60;;;18.20;40.40;;;;;;5093384;28;20176;-44
2022/07/12 02:14:13;;;;;;;4.87;1.93;;;18.10;40.40;;;;;;5093291;28;20250;-45
2022/07/12 02:16:40;;;;;;;3.47;1.80;;;18.10;40.40;;;;;;5092933;28;20445;-45
2022/07/12 02:19:07;;;;;;;2.85;2.00;;;18.20;40.50;;;;;;5093207;28;20275;-45
2022/07/12 02:21:33;;;;;;;3.38;1.85;;;18.20;40.40;;;;;;5093199;28;20202;-43
2022/07/12 02:24:00;;;;;;;2.97;1.50;;;18.20;40.40;;;;;;5093074;28;20168;-44
2022/07/12 02:26:26;;;;;;;2.20;1.40;;;18.20;40.50;;;;;;5092895;28;20163;-45
2022/07/12 02:28:52;;;;;;;2.67;2.10;;;18.20;40.40;;;;;;5092999;28;20252;-45
2022/07/12 02:31:18;;;;;;;2.87;2.03;;;18.20;40.30;;;;;;5093082;28;20635;-45
2022/07/12 02:33:43;;;;;;;3.17;1.43;;;18.20;40.40;;;;;;5093247;28;20654;-44
2022/07/12 02:36:09;;;;;;;3.03;2.00;;;18.20;40.50;;;;;;5092725;28;20168;-45
2022/07/12 02:38:35;;;;;;;3.20;2.00;;;18.20;40.40;;;;;;5092771;28;20207;-44
2022/07/12 02:41:01;;;;;;;2.77;2.20;;;18.20;40.70;;;;;;5092813;28;20544;-45
2022/07/12 02:43:29;;;;;;;3.13;1.67;;;18.20;40.50;;;;;;5092842;28;20810;-44
2022/07/12 02:46:02;;;;;;;2.53;1.85;;;18.20;40.60;;;;;;5092576;28;20398;-45
2022/07/12 02:48:28;;;;;;;2.78;2.10;;;18.20;40.60;;;;;;5092755;28;20270;-45
2022/07/12 02:50:54;;;;;;;3.00;2.10;;;18.20;40.60;;;;;;5092960;28;20254;-45
2022/07/12 02:53:20;;;;;;;4.27;2.60;;;18.20;40.60;;;;;;5092559;28;20164;-45
2022/07/12 02:55:46;;;;;;;2.73;2.20;;;18.20;40.60;;;;;;5092446;28;20577;-45
2022/07/12 02:58:12;;;;;;;4.15;1.50;;;18.10;40.70;;;;;;5092433;28;20559;-45
2022/07/12 03:00:38;;;;;;;2.63;1.50;;;18.20;40.60;;;;;;5092565;28;20168;-45
2022/07/12 03:03:03;;;;;;;3.63;2.47;;;18.20;40.60;;;;;;5092475;28;20468;-44
2022/07/12 03:05:29;;;;;;;3.17;2.23;;;18.20;40.80;;;;;;5092520;28;20420;-43
2022/07/12 03:07:55;;;;;;;3.83;2.23;;;18.20;40.80;;;;;;5092209;28;20295;-43
2022/07/12 03:10:21;;;;;;;4.27;1.63;;;18.10;40.80;;;;;;5092751;28;20546;-44
2022/07/12 03:12:46;;;;;;;2.50;1.60;;;18.10;40.70;;;;;;5074033;28;20187;-45
2022/07/12 03:15:12;;;;;;;2.10;1.30;;;18.10;40.70;;;;;;5111671;22;20597;-47
2022/07/12 03:17:38;;;;;;;3.37;2.07;;;18.10;40.70;;;;;;5112024;28;20654;-48
2022/07/12 03:20:11;;;;;;;2.80;1.67;;;18.10;40.80;;;;;;5112578;28;20618;-46
2022/07/12 03:22:37;;;;;;;2.08;1.48;;;18.10;40.80;;;;;;5112627;28;20250;-47
2022/07/12 03:25:04;;;;;;;2.92;1.80;;;18.10;40.80;;;;;;5112683;28;20191;-47
2022/07/12 03:27:31;;;;;;;2.70;2.00;;;18.10;40.80;;;;;;5112429;28;20171;-47
2022/07/12 03:29:57;;;;;;;2.03;1.60;;;18.10;41.10;;;;;;5112479;28;20182;-47
2022/07/12 03:32:23;;;;;;;2.70;1.95;;;18.00;41.10;;;;;;5112665;28;20175;-47
2022/07/12 03:34:49;;;;;;;2.13;1.63;;;18.10;41.20;;;;;;5112417;28;20296;-47
2022/07/12 03:37:15;;;;;;;2.40;1.60;;;18.00;41.10;;;;;;5112112;28;20666;-47
2022/07/12 03:39:41;;;;;;;12.23;1.70;;;18.00;40.90;;;;;;5112385;28;20160;-46
2022/07/12 03:42:06;;;;;;;2.83;1.50;;;18.00;41.00;;;;;;5112396;28;20167;-47
2022/07/12 03:44:33;;;;;;;9.90;3.30;;;18.00;41.00;;;;;;5112488;28;20178;-47
2022/07/12 03:46:59;;;;;;;2.35;1.40;;;18.00;41.10;;;;;;5112390;28;20510;-47
2022/07/12 03:49:25;;;;;;;2.88;1.55;;;17.90;41.00;;;;;;5112300;28;20186;-47
2022/07/12 03:51:51;;;;;;;6.10;2.60;;;17.90;41.50;;;;;;5112290;28;20163;-47
2022/07/12 03:54:17;;;;;;;3.40;2.13;;;17.90;41.50;;;;;;5112157;28;20405;-47
2022/07/12 03:59:27;;;;;;;3.25;1.77;;;17.80;41.70;;;;;;5112242;28;20224;-47
2022/07/12 04:01:53;;;;;;;5.53;1.90;;;17.90;42.00;;;;;;5112269;28;20171;-47
2022/07/12 04:04:18;;;;;;;3.35;3.05;;;17.80;41.70;;;;;;5112137;28;20898;-47
2022/07/12 04:06:45;;;;;;;9.00;1.80;;;17.90;42.00;;;;;;5111822;28;20219;-47
2022/07/12 04:09:12;;;;;;;3.38;2.05;;;17.90;41.90;;;;;;5112303;28;20175;-47
2022/07/12 04:11:37;;;;;;;6.40;2.20;;;17.90;41.80;;;;;;5112202;28;20182;-47
2022/07/12 04:14:03;;;;;;;3.60;2.77;;;17.90;42.10;;;;;;5112078;28;20164;-47
2022/07/12 04:16:32;;;;;;;5.83;2.60;;;17.80;42.00;;;;;;5111636;28;20670;-47
2022/07/12 04:18:58;;;;;;;3.85;2.28;;;17.90;41.80;;;;;;5112022;28;20531;-47
2022/07/12 04:21:24;;;;;;;4.40;3.03;;;17.90;41.90;;;;;;5111937;28;20171;-47
2022/07/12 04:23:50;;;;;;;3.78;2.28;;;17.90;42.00;;;;;;5112021;28;20257;-47
2022/07/12 04:26:16;;;;;;;8.30;2.80;;;18.00;41.90;;;;;;5114764;28;20205;-46
2022/07/12 04:28:42;;;;;;;3.90;2.57;;;17.90;42.00;;;;;;5115723;28;20197;-47
2022/07/12 04:31:08;;;;;;;3.07;2.07;;;18.00;42.70;;;;;;5115787;28;20206;-47
2022/07/12 04:33:34;;;;;;;3.40;2.43;;;18.00;42.40;;;;;;5115661;28;20479;-47
2022/07/12 04:36:00;;;;;;;7.53;2.40;;;18.10;42.60;;;;;;5115208;28;20235;-48
2022/07/12 04:38:25;;;;;;;6.00;2.50;;;18.10;42.60;;;;;;5115511;28;20202;-47
2022/07/12 04:40:51;;;;;;;4.97;2.60;;;18.10;43.20;;;;;;5115452;28;20438;-47
2022/07/12 04:43:17;;;;;;;4.90;1.93;;;18.20;42.40;;;;;;5115473;28;20229;-47
2022/07/12 04:45:44;;;;;;;2.73;1.97;;;18.30;42.50;;;;;;5115228;28;20409;-47
2022/07/12 04:48:13;;;;;;;3.15;2.60;;;18.30;42.60;;;;;;5115577;28;20178;-47
2022/07/12 04:50:38;;;;;;;6.03;1.90;;;18.40;42.50;;;;;;5115542;28;20503;-47
2022/07/12 04:53:05;;;;;;;2.83;2.17;;;18.40;42.50;;;;;;5115259;28;20175;-47
2022/07/12 04:55:30;;;;;;;3.00;2.17;;;18.40;42.50;;;;;;5115177;28;20206;-47
2022/07/12 04:57:56;;;;;;;3.77;2.50;;;18.40;42.50;;;;;;5114903;28;20207;-47
2022/07/12 05:00:22;;;;;;;5.43;2.20;;;18.50;42.60;;;;;;5115268;28;20175;-47
2022/07/12 05:02:48;;;;;;;2.92;2.45;;;18.50;42.70;;;;;;5114983;28;20393;-46
2022/07/12 05:05:14;;;;;;;4.20;3.07;;;18.60;42.70;;;;;;5114878;28;20247;-47
2022/07/12 05:07:43;;;;;;;5.38;2.50;;;18.70;42.70;;;;;;5114840;28;20677;-47
2022/07/12 05:10:09;;;;;;;3.67;2.42;;;18.80;42.70;;;;;;5115006;28;20232;-46
2022/07/12 05:12:35;;;;;;;3.77;2.20;;;18.90;42.50;;;;;;5114853;28;20172;-47
2022/07/12 05:15:02;;;;;;;4.90;2.35;;;19.00;42.30;;;;;;5114659;28;20269;-46
2022/07/12 05:17:27;;;;;;;4.30;3.13;;;19.10;42.60;;;;;;5114489;28;20733;-46
2022/07/12 05:19:55;;;;;;;11.13;3.30;;;19.20;42.60;;;;;;5115065;28;20179;-47
2022/07/12 05:22:21;;;;;;;4.82;3.25;;;19.40;42.70;;;;;;5114564;28;20416;-46
2022/07/12 05:24:46;;;;;;;14.27;4.90;;;19.50;42.80;;;;;;5114502;28;20183;-47
2022/07/12 05:27:12;;;;;;;7.60;3.37;;;19.60;42.90;;;;;;5114380;28;20405;-47
2022/07/12 05:29:38;;;;;;;9.20;2.67;;;19.80;42.80;;;;;;5114631;28;20175;-47
2022/07/12 05:32:05;;;;;;;4.07;2.37;;;20.00;42.60;;;;;;5114361;28;20174;-47
2022/07/12 05:34:31;;;;;;;3.30;2.40;;;20.10;42.70;;;;;;5114606;28;20240;-48
2022/07/12 05:36:56;;;;;;;3.00;2.40;;;20.20;42.60;;;;;;5113986;28;20669;-47
2022/07/12 05:39:22;;;;;;;7.80;2.60;;;20.30;42.80;;;;;;5114327;28;20821;-46
2022/07/12 05:41:48;;;;;;;3.40;2.93;;;20.40;42.80;;;;;;5114459;28;20167;-47
2022/07/12 05:44:16;;;;;;;4.30;3.13;;;20.50;43.00;;;;;;5114468;28;20164;-47
2022/07/12 05:46:42;;;;;;;4.78;3.70;;;20.60;43.20;;;;;;5114151;28;20202;-47
2022/07/12 05:49:08;;;;;;;5.75;3.75;;;20.70;43.40;;;;;;5114152;28;20171;-47
2022/07/12 05:54:18;;;;;;;6.45;3.38;;;20.90;44.20;;;;;;5114035;28;20249;-47
2022/07/12 05:56:44;;;;;;;5.63;4.07;;;21.10;44.60;;;;;;5113628;28;20199;-47
2022/07/12 05:59:10;;;;;;;6.13;3.73;;;21.20;44.30;;;;;;5113992;28;20163;-47
2022/07/12 06:01:35;;;;;;;4.63;3.70;;;21.30;43.90;;;;;;5114229;28;20175;-47
2022/07/12 06:04:01;;;;;;;4.30;3.23;;;21.40;44.00;;;;;;5113851;28;20228;-48
2022/07/12 06:06:27;;;;;;;4.97;3.57;;;21.50;43.80;;;;;;5113538;28;20187;-47
2022/07/12 06:08:53;;;;;;;7.60;3.40;;;21.60;43.60;;;;;;5114124;28;20584;-47
2022/07/12 06:11:19;;;;;;;4.10;3.23;;;21.80;43.80;;;;;;5113634;28;20416;-47
2022/07/12 06:13:44;;;;;;;4.90;3.60;;;21.90;43.60;;;;;;5113873;28;20182;-47
2022/07/12 06:16:11;;;;;;;7.20;3.70;;;21.90;43.20;;;;;;5113228;28;20566;-47
2022/07/12 06:18:37;;;;;;;4.50;3.17;;;22.10;43.50;;;;;;5113662;28;20551;-47
2022/07/12 06:21:03;;;;;;;3.92;3.13;;;22.20;43.00;;;;;;5113543;28;20397;-47
2022/07/12 06:23:29;;;;;;;5.17;3.23;;;22.20;42.80;;;;;;5113411;28;20236;-47
2022/07/12 06:25:56;;;;;;;4.57;3.27;;;22.30;42.70;;;;;;5113190;28;20436;-47
2022/07/12 06:28:21;;;;;;;7.07;4.87;;;22.50;42.80;;;;;;5113283;28;20405;-47
2022/07/12 06:30:47;;;;;;;3.93;3.37;;;22.50;42.80;;;;;;5113530;28;20181;-47
2022/07/12 06:33:13;;;;;;;5.50;3.30;;;22.60;42.30;;;;;;5113276;28;20412;-46
2022/07/12 06:35:39;;;;;;;6.13;3.40;;;22.70;42.50;;;;;;5112973;28;20573;-47
2022/07/12 06:38:05;;;;;;;5.53;4.73;;;22.90;42.70;;;;;;5113027;28;20239;-47
2022/07/12 06:40:31;;;;;;;6.40;3.50;;;23.00;42.00;;;;;;5113161;28;20481;-47
2022/07/12 06:42:57;;;;;;;8.20;4.20;;;23.00;42.00;;;;;;5113033;28;20393;-48
2022/07/12 06:45:23;;;;;;;5.40;3.93;;;23.10;41.70;;;;;;5112957;28;20428;-47
2022/07/12 06:47:50;;;;;;;7.97;4.07;;;23.10;41.70;;;;;;5112170;28;20456;-48
2022/07/12 06:50:16;;;;;;;4.50;4.10;;;23.10;41.70;;;;;;5112961;28;20408;-47
2022/07/12 06:52:42;;;;;;;6.27;3.93;;;23.10;41.80;;;;;;5112808;28;20424;-46
2022/07/12 06:55:08;;;;;;;4.40;3.60;;;23.20;42.00;;;;;;5112893;28;20187;-47
2022/07/12 06:57:34;;;;;;;6.93;4.13;;;23.30;42.00;;;;;;5112485;28;20251;-46
2022/07/12 07:00:02;;;;;;;3.80;3.27;;;23.40;41.70;;;;;;5112838;28;20401;-47
2022/07/12 07:02:27;;;;;;;7.03;4.53;;;23.50;41.80;;;;;;5112829;28;20417;-46
2022/07/12 07:04:53;;;;;;;4.93;4.13;;;23.60;41.10;;;;;;5112615;28;20425;-47
2022/07/12 07:07:19;;;;;;;6.17;3.63;;;23.70;41.10;;;;;;5112544;28;20171;-47
2022/07/12 07:09:45;;;;;;;10.00;3.93;;;23.80;41.10;;;;;;5112675;28;20642;-47
2022/07/12 07:12:11;;;;;;;5.57;3.80;;;23.80;40.80;;;;;;5112522;28;20175;-47
2022/07/12 07:14:37;;;;;;;4.90;3.37;;;23.90;40.80;;;;;;5112571;28;20167;-47
2022/07/12 07:17:02;;;;;;;4.70;3.57;;;23.90;40.30;;;;;;5112335;28;20477;-46
2022/07/12 07:19:28;;;;;;;8.63;3.93;;;24.00;40.10;;;;;;5112543;28;20408;-48
2022/07/12 07:21:55;;;;;;;4.03;3.53;;;24.00;39.50;;;;;;5112542;28;20397;-47
2022/07/12 07:24:21;;;;;;;4.50;3.17;;;24.00;39.70;;;;;;5112803;28;20167;-46
2022/07/12 07:26:47;;;;;;;3.83;3.00;;;24.10;40.00;;;;;;5112134;28;20499;-46
2022/07/12 07:31:58;;;;;;;4.17;3.13;;;24.20;39.90;;;;;;5112501;28;20430;-46
2022/07/12 07:34:23;;;;;;;3.83;3.47;;;24.30;40.20;;;;;;5112427;28;20405;-47
2022/07/12 07:36:50;;;;;;;4.53;3.53;;;24.40;39.60;;;;;;5112277;28;20441;-47
2022/07/12 07:39:16;;;;;;;3.73;2.83;;;24.50;38.90;;;;;;5112278;28;20166;-47
2022/07/12 07:41:42;;;;;;;4.97;2.53;;;24.60;39.50;;;;;;5112379;28;20401;-47
2022/07/12 07:44:08;;;;;;;3.70;2.40;;;24.70;39.00;;;;;;5112462;28;20535;-47
2022/07/12 07:46:33;;;;;;;3.93;3.00;;;24.80;38.40;;;;;;5112277;28;20911;-47
2022/07/12 07:48:59;;;;;;;4.67;3.13;;;24.80;38.80;;;;;;5112340;28;20626;-47
2022/07/12 07:51:25;;;;;;;6.40;3.60;;;24.90;38.80;;;;;;5112230;28;20409;-46
2022/07/12 07:53:51;;;;;;;4.30;3.10;;;25.00;37.70;;;;;;5112232;28;20297;-47
2022/07/12 07:56:16;;;;;;;4.47;2.90;;;25.00;37.90;;;;;;5112002;28;20538;-47
2022/07/12 07:58:42;;;;;;;3.57;2.43;;;25.00;38.50;;;;;;5112944;28;20206;-47
2022/07/12 08:01:08;;;;;;;3.30;2.27;;;25.10;38.50;;;;;;5116522;28;20171;-46
2022/07/12 08:03:34;;;;;;;3.93;2.57;;;25.20;37.70;;;;;;5116270;28;20642;-47
2022/07/12 08:06:00;;;;;;;5.13;3.10;;;25.20;38.10;;;;;;5115916;28;20263;-47
2022/07/12 08:08:27;;;;;;;3.97;3.00;;;25.30;37.90;;;;;;5115964;28;20228;-48
2022/07/12 08:10:53;;;;;;;3.63;2.10;;;25.40;37.20;;;;;;5116086;28;20401;-47
2022/07/12 08:13:19;;;;;;;3.80;2.60;;;25.50;37.00;;;;;;5116040;28;20904;-46
2022/07/12 08:15:45;;;;;;;3.27;2.20;;;25.50;37.00;;;;;;5115457;28;20510;-47
2022/07/12 08:18:11;;;;;;;2.60;1.70;;;25.70;36.10;;;;;;5115814;28;20445;-47
2022/07/12 08:20:37;;;;;;;5.37;2.40;;;25.80;36.00;;;;;;5115824;28;20768;-47
2022/07/12 08:23:03;;;;;;;3.53;1.87;;;25.90;35.20;;;;;;5115725;28;20393;-47
2022/07/12 08:25:29;;;;;;;2.93;2.33;;;25.90;35.10;;;;;;5115596;28;20183;-47
2022/07/12 08:27:54;;;;;;;3.67;2.60;;;26.00;34.90;;;;;;5115805;28;20452;-47
2022/07/12 08:30:20;;;;;;;3.13;2.60;;;26.00;35.40;;;;;;5116066;28;20587;-47
2022/07/12 08:32:47;;;;;;;2.63;1.57;;;26.10;35.00;;;;;;5115867;28;20281;-48
2022/07/12 08:35:14;;;;;;;2.90;2.17;;;26.20;35.10;;;;;;5115469;28;20431;-47
2022/07/12 08:37:40;;;;;;;2.97;1.80;;;26.30;34.50;;;;;;5115184;28;20447;-47
2022/07/12 08:40:07;;;;;;;2.87;1.97;;;26.40;34.50;;;;;;5115494;28;20486;-46
2022/07/12 08:42:33;;;;;;;3.30;2.10;;;26.40;34.50;;;;;;5115454;28;20393;-47
2022/07/12 08:45:00;;;;;;;3.13;2.20;;;26.50;33.00;;;;;;5115522;28;20440;-48
2022/07/12 08:47:25;;;;;;;4.63;2.30;;;26.40;33.40;;;;;;5115239;28;20416;-48
2022/07/12 08:50:10;;;;;;;2.87;1.87;;;26.30;33.50;;;;;;5115406;28;20900;-47
2022/07/12 08:52:41;;;;;;;2.27;1.50;;;26.30;33.70;;;;;;5115523;28;20178;-47
2022/07/12 08:55:24;;;;;;;2.50;1.50;;;26.30;32.20;;;;;;5115483;28;20440;-47
2022/07/12 08:57:55;;;;;;;4.03;1.57;;;26.30;32.30;;;;;;5114927;28;20440;-48
2022/07/12 09:00:22;;;;;;;3.67;1.90;;;26.30;33.20;;;;;;5115076;28;20962;-48
2022/07/12 09:02:58;;;;;;;2.10;1.50;;;26.50;33.10;;;;;;5115110;28;20397;-47
2022/07/12 09:05:27;;;;;;;2.03;1.30;;;26.60;32.20;;;;;;5114999;28;20413;-46
2022/07/12 09:08:05;;;;;;;2.10;1.30;;;26.60;32.00;;;;;;5114747;28;20809;-47
2022/07/12 09:10:32;;;;;;;2.23;0.93;;;26.50;32.50;;;;;;5114547;28;20462;-47
2022/07/12 09:12:58;;;;;;;2.63;1.20;;;26.40;31.70;;;;;;5114822;28;20415;-47
2022/07/12 09:15:26;;;;;;;2.90;1.33;;;26.30;31.80;;;;;;5114751;28;20449;-46
2022/07/12 09:17:58;;;;;;;2.47;1.00;;;26.30;31.70;;;;;;5114802;28;20445;-48
2022/07/12 09:20:28;;;;;;;1.90;1.00;;;26.30;31.10;;;;;;5116606;22;20498;-47
2022/07/12 09:22:57;;;;;;;2.30;1.23;;;26.40;31.20;;;;;;5067511;28;20412;-44
2022/07/12 09:25:23;;;;;;;2.17;1.00;;;26.60;30.00;;;;;;5054143;28;20396;-43
2022/07/12 09:27:52;;;;;;;2.47;1.00;;;26.80;30.20;;;;;;5054045;28;20435;-44
2022/07/12 09:30:19;;;;;;;4.20;1.57;;;27.00;30.60;;;;;;5053873;28;20423;-43
2022/07/12 09:36:07;;;;;;;1.83;0.77;;;27.20;29.10;;;;;;5054018;28;20403;-43
2022/07/12 09:38:48;;;;;;;1.60;0.70;;;27.30;28.50;;;;;;5053920;28;20443;-43
2022/07/12 09:41:19;;;;;;;1.80;0.80;;;27.50;28.90;;;;;;5053719;28;20502;-43
2022/07/12 09:43:45;;;;;;;1.90;1.00;;;27.60;28.80;;;;;;5053755;28;20396;-44
2022/07/12 09:46:13;;;;;;;1.63;0.67;;;27.60;26.70;;;;;;5053408;28;20399;-44
2022/07/12 09:48:40;;;;;;;2.47;1.00;;;27.50;27.40;;;;;;5053729;28;20758;-44
2022/07/12 09:51:09;;;;;;;4.87;1.00;;;27.50;28.30;;;;;;5053401;28;20518;-44
2022/07/12 09:53:45;;;;;;;1.97;1.30;;;27.60;29.00;;;;;;5053521;28;20412;-43
2022/07/12 09:56:14;;;;;;;5.97;1.30;;;27.50;27.90;;;;;;5053450;28;20394;-43
2022/07/12 09:58:54;;;;;;;2.10;0.87;;;27.50;28.00;;;;;;5053233;28;20452;-42
2022/07/12 10:01:21;;;;;;;1.97;0.93;;;27.50;28.20;;;;;;5053344;28;20424;-43
2022/07/12 10:03:48;;;;;;;3.30;0.70;;;27.60;27.40;;;;;;5053253;28;20500;-45
2022/07/12 10:06:23;;;;;;;1.87;0.97;;;27.70;26.70;;;;;;5053088;28;20910;-44
2022/07/12 10:08:50;;;;;;;3.03;1.07;;;27.80;25.20;;;;;;5053249;28;20403;-44
2022/07/12 10:11:16;;;;;;;1.87;0.80;;;27.70;26.50;;;;;;5053422;28;20464;-43
2022/07/12 10:13:43;;;;;;;2.40;0.90;;;27.50;26.70;;;;;;5053212;28;20412;-43
2022/07/12 10:16:11;;;;;;;1.80;0.97;;;27.40;27.50;;;;;;5052795;28;20403;-43
2022/07/12 10:18:37;;;;;;;3.07;0.90;;;27.30;27.20;;;;;;5052880;28;20459;-43
2022/07/12 10:21:19;;;;;;;2.60;1.37;;;27.40;27.70;;;;;;5052922;28;20447;-43
2022/07/12 10:23:45;;;;;;;8.07;1.27;;;27.60;28.00;;;;;;5052027;28;20518;-43
2022/07/12 10:26:17;;;;;;;2.33;0.80;;;27.70;27.10;;;;;;5052934;28;20910;-43
2022/07/12 10:29:03;;;;;;;1.60;0.77;;;27.70;25.50;;;;;;5052753;28;20446;-43
2022/07/12 10:31:40;;;;;;;1.60;0.63;;;27.90;25.30;;;;;;5052565;28;20497;-43
2022/07/12 10:34:10;;;;;;;4.10;0.90;;;28.00;25.20;;;;;;5052718;28;20415;-43
2022/07/12 10:36:56;;;;;;;3.30;1.23;;;28.20;25.20;;;;;;5052332;28;20411;-43
2022/07/12 10:39:23;;;;;;;3.50;0.90;;;28.30;25.30;;;;;;5041967;28;20491;-43
2022/07/12 10:42:07;;;;;;;1.60;0.70;;;28.50;24.40;;;;;;5052711;28;20515;-43
2022/07/12 10:44:42;;;;;;;1.93;0.70;;;28.50;23.00;;;;;;5052499;28;20406;-43
2022/07/12 10:47:12;;;;;;;1.87;0.80;;;28.50;23.40;;;;;;5052532;28;20415;-43
2022/07/12 10:49:47;;;;;;;2.90;1.30;;;28.30;23.50;;;;;;5052610;28;20408;-43
2022/07/12 10:52:14;;;;;;;3.17;0.90;;;28.20;24.20;;;;;;5052611;28;20403;-43
2022/07/12 10:55:02;;;;;;;1.63;0.67;;;28.20;24.50;;;;;;5052437;28;20461;-43
2022/07/12 10:57:50;;;;;;;1.70;0.60;;;28.40;23.90;;;;;;5041270;28;20494;-43
2022/07/12 11:00:17;;;;;;;2.93;1.10;;;28.70;24.30;;;;;;5052187;28;20942;-43
2022/07/12 11:02:43;;;;;;;3.83;0.73;;;28.90;23.80;;;;;;5052257;28;20962;-45
2022/07/12 11:05:09;;;;;;;2.53;0.70;;;29.10;25.00;;;;;;5052142;28;20495;-46
2022/07/12 11:07:36;;;;;;;2.00;0.73;;;29.30;24.20;;;;;;5052034;28;20451;-46
2022/07/12 11:10:03;;;;;;;1.50;0.60;;;29.60;23.70;;;;;;5052069;28;20845;-45
2022/07/12 11:12:32;;;;;;;1.47;0.53;;;29.70;23.40;;;;;;5052206;28;20768;-45
2022/07/12 11:14:59;;;;;;;1.60;0.70;;;29.90;22.90;;;;;;5052357;28;20462;-46
2022/07/12 11:17:27;;;;;;;1.70;0.80;;;29.90;23.30;;;;;;5051755;28;20455;-46
2022/07/12 11:20:05;;;;;;;1.77;0.57;;;30.10;23.40;;;;;;5052130;28;20399;-44
2022/07/12 11:22:31;;;;;;;2.77;0.63;;;30.20;22.50;;;;;;5052344;28;20388;-43
2022/07/12 11:24:59;;;;;;;1.83;0.50;;;30.00;21.60;;;;;;5051960;28;20423;-43
2022/07/12 11:27:28;;;;;;;1.97;0.80;;;29.90;21.50;;;;;;5052051;28;20415;-43
2022/07/12 11:29:59;;;;;;;1.90;0.70;;;29.80;22.20;;;;;;5052177;28;20434;-42
2022/07/12 11:32:36;;;;;;;1.53;0.50;;;29.80;22.50;;;;;;5052466;28;20561;-43
2022/07/12 11:35:02;;;;;;;2.07;1.00;;;30.00;21.50;;;;;;5055239;28;20468;-43
2022/07/12 11:37:28;;;;;;;1.60;0.50;;;29.90;20.40;;;;;;5055725;28;20447;-43
2022/07/12 11:39:54;;;;;;;2.33;0.70;;;29.90;21.50;;;;;;5055924;28;20439;-43
2022/07/12 11:42:19;;;;;;;1.90;1.07;;;30.00;22.00;;;;;;5056013;28;20180;-43
2022/07/12 11:44:46;;;;;;;1.73;0.70;;;30.00;21.70;;;;;;5055850;28;20229;-43
2022/07/12 11:47:16;;;;;;;1.60;0.60;;;30.00;19.90;;;;;;5054581;28;20251;-43
2022/07/12 11:49:47;;;;;;;1.50;0.50;;;30.00;20.20;;;;;;5055609;28;20949;-43
2022/07/12 11:52:17;;;;;;;1.60;0.67;;;30.00;21.20;;;;;;5056034;28;20818;-43
2022/07/12 11:54:44;;;;;;;2.60;0.60;;;29.90;21.80;;;;;;5056027;28;20408;-43
2022/07/12 11:57:11;;;;;;;4.33;0.60;;;29.80;21.30;;;;;;5055642;28;20447;-43
2022/07/12 11:59:37;;;;;;;2.97;0.40;;;29.60;21.70;;;;;;5055897;28;20404;-43
2022/07/12 12:02:15;;;;;;;2.70;0.87;;;29.50;22.10;;;;;;5055690;28;20895;-43
2022/07/12 12:04:53;;;;;;;1.63;0.73;;;29.60;22.10;;;;;;5055657;28;20891;-44
2022/07/12 12:07:20;;;;;;;2.90;0.63;;;29.60;21.40;;;;;;5055291;28;20450;-44
2022/07/12 12:10:24;;;;;;;1.60;0.60;;;29.50;21.70;;;;;;5055370;28;20415;-43
2022/07/12 12:12:52;;;;;;;1.77;0.50;;;29.50;21.70;;;;;;5052240;28;20517;-43
2022/07/12 12:15:21;;;;;;;1.70;0.70;;;29.40;21.40;;;;;;5055279;28;20404;-42
2022/07/12 12:17:58;;;;;;;1.60;0.73;;;29.30;21.10;;;;;;5055133;28;21178;-44
2022/07/12 12:20:29;;;;;;;1.70;0.70;;;29.30;21.90;;;;;;5055175;28;20454;-43
2022/07/12 12:22:59;;;;;;;1.90;0.70;;;29.30;22.40;;;;;;5055492;28;20411;-44
2022/07/12 12:25:27;;;;;;;1.43;0.50;;;29.40;22.10;;;;;;5054977;28;20422;-45
2022/07/12 12:28:00;;;;;;;1.50;0.80;;;29.50;21.30;;;;;;5054930;28;20461;-44
2022/07/12 12:30:27;;;;;;;1.73;0.93;;;29.40;20.70;;;;;;5055196;28;20424;-44
2022/07/12 12:32:55;;;;;;;1.50;0.50;;;29.30;21.20;;;;;;5055290;28;20462;-45
2022/07/12 12:35:23;;;;;;;1.50;0.60;;;29.20;21.90;;;;;;5055028;28;20407;-44
2022/07/12 12:37:59;;;;;;;2.60;0.60;;;29.30;22.30;;;;;;5054552;28;20530;-44
2022/07/12 12:40:27;;;;;;;3.30;1.00;;;29.40;21.70;;;;;;5054868;28;20772;-43
2022/07/12 12:43:05;;;;;;;1.80;0.80;;;29.40;21.10;;;;;;5054901;28;21135;-44
2022/07/12 12:45:30;;;;;;;1.60;0.70;;;29.40;21.20;;;;;;5053888;28;20407;-45
2022/07/12 12:48:05;;;;;;;5.63;0.73;;;29.30;21.30;;;;;;5054669;28;20403;-43
2022/07/12 12:50:46;;;;;;;3.10;0.70;;;29.30;20.80;;;;;;5054625;28;20681;-45
2022/07/12 12:53:17;;;;;;;2.00;0.70;;;29.30;21.30;;;;;;5054655;28;20407;-44
2022/07/12 12:55:45;;;;;;;1.50;0.57;;;29.20;21.60;;;;;;5054699;28;20752;-42
2022/07/12 12:58:12;;;;;;;1.60;0.70;;;29.40;22.00;;;;;;5054479;28;20506;-45
2022/07/12 13:00:40;;;;;;;1.90;0.80;;;29.70;21.30;;;;;;5054705;28;20432;-46